createdAt,value
2019-04-28T00:02:56.543Z,101143.84
2019-04-28T00:06:23.397Z,101142.87
2019-04-28T00:09:35.210Z,101144.20
2019-04-28T00:13:37.165Z,101142.59
2019-04-28T00:16:44.106Z,101144.81
2019-04-28T00:31:42.363Z,101147.75
2019-04-28T00:34:51.150Z,101153.55
2019-04-28T00:38:05.846Z,101153.36
2019-04-28T00:41:11.063Z,101157.83
2019-04-28T00:48:54.177Z,101161.41
2019-04-28T00:52:41.765Z,101157.92
2019-04-28T00:55:53.988Z,101158.31
2019-04-28T00:59:01.815Z,101168.34
2019-04-28T01:02:28.712Z,101165.23
2019-04-28T01:05:35.057Z,101164.27
2019-04-28T01:08:59.374Z,101163.78
2019-04-28T01:12:17.545Z,101167.78
2019-04-28T01:18:57.420Z,101163.14
2019-04-28T01:22:12.551Z,101166.61
2019-04-28T01:25:17.532Z,101171.05
2019-04-28T01:28:34.724Z,101169.59
2019-04-28T01:36:20.203Z,101169.02
2019-04-28T01:39:25.679Z,101171.84
2019-04-28T01:42:30.653Z,101176.64
2019-04-28T01:45:35.669Z,101172.61
2019-04-28T01:49:16.512Z,101177.13
2019-04-28T01:52:27.620Z,101177.78
2019-04-28T01:55:32.592Z,101178.26
2019-04-28T01:58:40.767Z,101184.42
2019-04-28T02:01:46.965Z,101181.76
2019-04-28T02:04:52.098Z,101182.20
2019-04-28T02:08:00.324Z,101181.28
2019-04-28T02:11:14.350Z,101180.07
2019-04-28T02:14:19.558Z,101184.73
2019-04-28T02:17:23.828Z,101187.84
2019-04-28T02:20:30.006Z,101188.28
2019-04-28T02:23:35.021Z,101185.98
2019-04-28T02:26:40.304Z,101201.61
2019-04-28T02:29:44.592Z,101198.10
2019-04-28T02:32:51.636Z,101201.53
2019-04-28T02:35:54.886Z,101201.61
2019-04-28T02:39:00.814Z,101198.02
2019-04-28T02:42:05.191Z,101204.11
2019-04-28T02:45:11.613Z,101209.10
2019-04-28T02:48:21.255Z,101205.19
2019-04-28T02:51:31.158Z,101204.23
2019-04-28T02:54:35.449Z,101201.45
2019-04-28T02:57:40.600Z,101203.23
2019-04-28T03:01:01.078Z,101208.95
2019-04-28T03:03:51.011Z,101202.74
2019-04-28T03:06:55.294Z,101201.34
2019-04-28T03:10:03.233Z,101203.11
2019-04-28T03:13:05.576Z,101210.16
2019-04-28T03:16:10.860Z,101207.09
2019-04-28T03:19:15.303Z,101207.66
2019-04-28T03:22:20.407Z,101216.89
2019-04-28T03:25:35.938Z,101218.26
2019-04-28T03:29:02.282Z,101221.84
2019-04-28T03:32:39.997Z,101224.94
2019-04-28T03:35:34.395Z,101228.48
2019-04-28T03:38:40.610Z,101226.23
2019-04-28T03:41:44.752Z,101228.97
2019-04-28T03:44:51.088Z,101227.52
2019-04-28T03:47:55.024Z,101228.45
2019-04-28T03:51:00.665Z,101232.02
2019-04-28T03:54:05.070Z,101230.07
2019-04-28T03:57:11.436Z,101231.80
2019-04-28T04:00:15.364Z,101232.17
2019-04-28T04:03:21.000Z,101233.91
2019-04-28T04:06:25.555Z,101232.66
2019-04-28T04:09:37.723Z,101234.88
2019-04-28T04:13:01.073Z,101240.59
2019-04-28T04:16:27.482Z,101243.25
2019-04-28T04:19:34.589Z,101244.06
2019-04-28T04:22:41.173Z,101244.14
2019-04-28T04:25:44.873Z,101247.75
2019-04-28T04:28:51.487Z,101248.20
2019-04-28T04:32:10.114Z,101252.55
2019-04-28T04:35:01.215Z,101250.71
2019-04-28T04:38:05.532Z,101252.70
2019-04-28T04:41:11.181Z,101259.31
2019-04-28T04:44:15.683Z,101262.74
2019-04-28T04:47:21.058Z,101262.27
2019-04-28T04:50:25.451Z,101264.04
2019-04-28T04:53:30.784Z,101268.09
2019-04-28T04:56:35.091Z,101266.33
2019-04-28T04:59:40.117Z,101258.83
2019-04-28T05:02:55.367Z,101267.86
2019-04-28T05:06:00.148Z,101269.23
2019-04-28T05:09:10.167Z,101274.13
2019-04-28T05:12:14.638Z,101273.17
2019-04-28T05:15:20.362Z,101281.70
2019-04-28T05:18:24.689Z,101283.88
2019-04-28T05:21:32.789Z,101289.77
2019-04-28T05:24:40.834Z,101298.20
2019-04-28T05:27:45.134Z,101295.87
2019-04-28T05:30:50.251Z,101298.83
2019-04-28T05:33:54.613Z,101297.03
2019-04-28T05:37:00.684Z,101300.16
2019-04-28T05:40:05.319Z,101306.94
2019-04-28T05:43:10.665Z,101304.72
2019-04-28T05:46:14.995Z,101310.17
2019-04-28T05:49:39.732Z,101310.23
2019-04-28T05:53:03.034Z,101319.05
2019-04-28T05:56:39.709Z,101320.57
2019-04-28T05:59:50.550Z,101323.98
2019-04-28T06:02:56.847Z,101329.70
2019-04-28T06:06:01.332Z,101325.79
2019-04-28T06:09:23.107Z,101332.02
2019-04-28T06:12:27.395Z,101333.22
2019-04-28T06:15:31.703Z,101336.73
2019-04-28T06:18:35.980Z,101338.41
2019-04-28T06:21:40.261Z,101345.77
2019-04-28T06:24:44.554Z,101343.75
2019-04-28T06:27:48.837Z,101349.55
2019-04-28T06:30:53.136Z,101346.72
2019-04-28T06:33:57.404Z,101351.00
2019-04-28T06:37:01.708Z,101347.88
2019-04-28T06:40:06.142Z,101350.66
2019-04-28T06:43:10.425Z,101341.58
2019-04-28T06:46:14.728Z,101340.25
2019-04-28T06:49:19.036Z,101340.25
2019-04-28T06:52:23.320Z,101331.23
2019-04-28T06:55:27.604Z,101330.69
2019-04-28T06:58:32.044Z,101337.62
2019-04-28T07:01:36.341Z,101358.72
2019-04-28T07:04:40.765Z,101356.67
2019-04-28T07:07:45.050Z,101359.88
2019-04-28T07:10:49.365Z,101370.07
2019-04-28T07:13:53.660Z,101379.20
2019-04-28T07:16:57.946Z,101379.27
2019-04-28T07:20:11.866Z,101390.86
2019-04-28T07:23:16.158Z,101392.98
2019-04-28T07:26:20.463Z,101396.53
2019-04-28T07:29:24.885Z,101401.34
2019-04-28T07:32:29.182Z,101393.25
2019-04-28T07:35:33.448Z,101398.09
2019-04-28T07:38:37.756Z,101403.17
2019-04-28T07:41:42.039Z,101400.11
2019-04-28T07:44:46.328Z,101395.70
2019-04-28T07:47:50.612Z,101407.74
2019-04-28T07:50:54.905Z,101405.49
2019-04-28T07:54:05.035Z,101411.97
2019-04-28T07:57:09.355Z,101409.48
2019-04-28T08:00:17.570Z,101412.23
2019-04-28T08:03:21.860Z,101417.05
2019-04-28T08:06:27.050Z,101418.25
2019-04-28T08:09:31.452Z,101421.03
2019-04-28T08:12:35.745Z,101424.04
2019-04-28T08:15:40.070Z,101428.47
2019-04-28T08:18:44.354Z,101432.78
2019-04-28T08:21:48.634Z,101430.73
2019-04-28T08:24:52.930Z,101434.55
2019-04-28T08:27:57.218Z,101440.86
2019-04-28T08:31:01.605Z,101443.45
2019-04-28T08:34:06.827Z,101444.34
2019-04-28T08:37:11.133Z,101451.26
2019-04-28T08:40:15.431Z,101457.95
2019-04-28T08:43:19.748Z,101460.68
2019-04-28T08:46:24.087Z,101460.68
2019-04-28T08:49:28.376Z,101460.34
2019-04-28T08:52:32.679Z,101464.56
2019-04-28T08:55:36.989Z,101467.49
2019-04-28T08:58:41.289Z,101468.83
2019-04-28T09:01:45.582Z,101475.44
2019-04-28T09:04:49.870Z,101486.88
2019-04-28T09:07:54.146Z,101493.59
2019-04-28T09:10:58.487Z,101492.64
2019-04-28T09:14:02.842Z,101496.63
2019-04-28T09:17:07.139Z,101492.16
2019-04-28T09:20:11.439Z,101495.30
2019-04-28T09:23:15.745Z,101501.37
2019-04-28T09:26:20.049Z,101504.84
2019-04-28T09:29:24.376Z,101497.70
2019-04-28T09:32:28.654Z,101501.30
2019-04-28T09:35:32.990Z,101502.30
2019-04-28T09:38:37.306Z,101499.67
2019-04-28T09:41:45.897Z,101510.25
2019-04-28T09:44:50.526Z,101510.65
2019-04-28T09:47:54.833Z,101522.45
2019-04-28T09:50:59.172Z,101515.80
2019-04-28T09:54:03.575Z,101523.97
2019-04-28T09:57:07.866Z,101522.89
2019-04-28T10:00:12.275Z,101527.34
2019-04-28T10:03:16.627Z,101526.55
2019-04-28T10:06:20.935Z,101526.55
2019-04-28T10:09:25.257Z,101524.91
2019-04-28T10:12:29.565Z,101513.32
2019-04-28T10:15:33.857Z,101512.67
2019-04-28T10:18:38.168Z,101522.56
2019-04-28T10:21:42.470Z,101524.77
2019-04-28T10:24:46.782Z,101524.25
2019-04-28T10:27:51.129Z,101529.09
2019-04-28T10:30:55.447Z,101531.94
2019-04-28T10:34:02.147Z,101523.01
2019-04-28T10:37:06.446Z,101523.01
2019-04-28T10:40:17.015Z,101530.52
2019-04-28T10:43:21.317Z,101530.52
2019-04-28T10:46:25.616Z,101531.31
2019-04-28T10:49:30.307Z,101530.78
2019-04-28T10:52:34.608Z,101521.98
2019-04-28T10:55:38.901Z,101528.38
2019-04-28T10:58:45.128Z,101529.09
2019-04-28T11:01:49.415Z,101523.91
2019-04-28T11:05:08.489Z,101523.91
2019-04-28T11:08:30.110Z,101530.28
2019-04-28T11:11:34.436Z,101539.93
2019-04-28T11:14:38.721Z,101539.63
2019-04-28T11:17:43.024Z,101537.50
2019-04-28T11:20:47.358Z,101547.42
2019-04-28T11:23:51.677Z,101557.55
2019-04-28T11:26:55.982Z,101557.55
2019-04-28T11:30:00.335Z,101571.03
2019-04-28T11:33:14.572Z,101561.06
2019-04-28T11:36:20.388Z,101563.16
2019-04-28T11:39:29.201Z,101570.40
2019-04-28T11:42:33.518Z,101570.23
2019-04-28T11:45:37.866Z,101573.83
2019-04-28T11:48:42.205Z,101578.45
2019-04-28T11:51:46.619Z,101582.54
2019-04-28T11:54:50.895Z,101579.64
2019-04-28T11:57:55.199Z,101581.48
2019-04-28T12:00:59.588Z,101587.74
2019-04-28T12:04:05.586Z,101579.66
2019-04-28T12:07:09.874Z,101593.44
2019-04-28T12:10:19.323Z,101599.82
2019-04-28T12:13:37.673Z,101599.82
2019-04-28T12:17:08.416Z,101598.04
2019-04-28T12:20:21.148Z,101601.52
2019-04-28T12:23:25.460Z,101613.50
2019-04-28T12:26:29.826Z,101617.50
2019-04-28T12:29:34.153Z,101617.93
2019-04-28T12:32:38.446Z,101617.93
2019-04-28T12:35:47.916Z,101628.96
2019-04-28T12:38:48.776Z,101627.42
2019-04-28T12:41:53.142Z,101639.64
2019-04-28T12:44:57.388Z,101647.53
2019-04-28T12:48:01.710Z,101649.67
2019-04-28T12:51:06.082Z,101653.00
2019-04-28T12:54:12.035Z,101652.71
2019-04-28T12:57:16.443Z,101651.59
2019-04-28T13:00:29.814Z,101654.25
2019-04-28T13:03:58.916Z,101663.84
2019-04-28T13:07:09.473Z,101656.16
2019-04-28T13:10:13.779Z,101655.52
2019-04-28T13:13:18.118Z,101658.74
2019-04-28T13:16:22.427Z,101655.03
2019-04-28T13:19:26.716Z,101658.75
2019-04-28T13:22:31.036Z,101648.44
2019-04-28T13:25:35.370Z,101658.28
2019-04-28T13:28:39.719Z,101665.70
2019-04-28T13:31:44.137Z,101666.56
2019-04-28T13:34:48.440Z,101671.81
2019-04-28T13:37:52.794Z,101672.38
2019-04-28T13:40:57.091Z,101673.63
2019-04-28T13:44:05.953Z,101674.84
2019-04-28T13:47:10.371Z,101684.93
2019-04-28T13:50:27.549Z,101687.70
2019-04-28T13:53:31.888Z,101688.71
2019-04-28T13:56:36.232Z,101688.71
2019-04-28T13:59:40.531Z,101685.11
2019-04-28T14:02:57.326Z,101686.30
2019-04-28T14:06:05.230Z,101670.42
2019-04-28T14:09:15.913Z,101680.13
2019-04-28T14:12:20.237Z,101680.13
2019-04-28T14:15:24.625Z,101686.36
2019-04-28T14:18:28.941Z,101685.18
2019-04-28T14:21:33.258Z,101685.18
2019-04-28T14:24:37.589Z,101696.85
2019-04-28T14:27:41.886Z,101700.98
2019-04-28T14:30:46.302Z,101697.19
2019-04-28T14:33:50.658Z,101697.19
2019-04-28T14:36:55.066Z,101712.08
2019-04-28T14:39:59.382Z,101724.11
2019-04-28T14:43:03.880Z,101723.52
2019-04-28T14:46:08.238Z,101724.63
2019-04-28T14:49:12.559Z,101724.27
2019-04-28T14:52:16.924Z,101725.22
2019-04-28T14:55:21.197Z,101728.52
2019-04-28T14:58:25.585Z,101733.11
2019-04-28T15:01:47.183Z,101730.69
2019-04-28T15:05:04.967Z,101730.55
2019-04-28T15:08:26.883Z,101734.95
2019-04-28T15:11:52.718Z,101739.47
2019-04-28T15:14:57.123Z,101744.91
2019-04-28T15:18:01.394Z,101751.26
2019-04-28T15:21:05.725Z,101755.56
2019-04-28T15:24:10.061Z,101746.85
2019-04-28T15:27:14.382Z,101746.88
2019-04-28T15:30:18.925Z,101746.88
2019-04-28T15:33:23.274Z,101756.43
2019-04-28T15:36:27.611Z,101756.43
2019-04-28T15:39:31.858Z,101754.24
2019-04-28T15:42:36.227Z,101765.19
2019-04-28T15:45:40.546Z,101773.91
2019-04-28T15:48:44.869Z,101779.11
2019-04-28T15:51:49.185Z,101784.77
2019-04-28T15:54:53.496Z,101792.91
2019-04-28T15:57:57.819Z,101792.00
2019-04-28T16:01:02.303Z,101792.00
2019-04-28T16:04:06.629Z,101804.47
2019-04-28T16:07:23.900Z,101811.79
2019-04-28T16:10:17.024Z,101816.50
2019-04-28T16:13:21.343Z,101811.12
2019-04-28T16:16:25.667Z,101820.18
2019-04-28T16:19:29.980Z,101820.18
2019-04-28T16:22:34.315Z,101821.73
2019-04-28T16:25:38.653Z,101822.65
2019-04-28T16:28:42.987Z,101824.39
2019-04-28T16:31:47.325Z,101826.86
2019-04-28T16:34:51.932Z,101825.97
2019-04-28T16:37:56.273Z,101829.51
2019-04-28T16:41:21.634Z,101834.85
2019-04-28T16:44:43.831Z,101832.14
2019-04-28T16:47:48.179Z,101836.97
2019-04-28T16:50:52.519Z,101837.41
2019-04-28T16:53:56.858Z,101830.84
2019-04-28T16:57:10.617Z,101837.44
2019-04-28T17:00:20.507Z,101833.84
2019-04-28T17:03:25.102Z,101840.09
2019-04-28T17:06:29.445Z,101837.70
2019-04-28T17:09:33.816Z,101845.12
2019-04-28T17:12:38.135Z,101839.43
2019-04-28T17:15:42.523Z,101845.62
2019-04-28T17:18:47.188Z,101851.45
2019-04-28T17:21:51.585Z,101855.86
2019-04-28T17:24:55.946Z,101860.36
2019-04-28T17:28:00.338Z,101858.53
2019-04-28T17:31:04.855Z,101865.30
2019-04-28T17:34:09.279Z,101867.55
2019-04-28T17:37:13.854Z,101871.05
2019-04-28T17:40:18.358Z,101869.34
2019-04-28T17:43:22.690Z,101872.94
2019-04-28T17:46:27.033Z,101876.94
2019-04-28T17:49:36.943Z,101879.98
2019-04-28T17:52:41.294Z,101881.39
2019-04-28T17:55:45.673Z,101873.86
2019-04-28T17:58:50.050Z,101883.30
2019-04-28T18:02:11.885Z,101892.68
2019-04-28T18:05:28.458Z,101890.92
2019-04-28T18:08:32.989Z,101896.59
2019-04-28T18:11:37.368Z,101896.59
2019-04-28T18:14:43.787Z,101901.06
2019-04-28T18:18:02.244Z,101906.36
2019-04-28T18:21:06.839Z,101910.77
2019-04-28T18:24:11.223Z,101909.08
2019-04-28T18:27:15.671Z,101916.16
2019-04-28T18:30:22.901Z,101917.55
2019-04-28T18:33:41.464Z,101921.95
2019-04-28T18:36:52.425Z,101925.41
2019-04-28T18:40:14.481Z,101922.87
2019-04-28T18:43:25.076Z,101927.32
2019-04-28T18:46:30.656Z,101926.45
2019-04-28T18:49:35.106Z,101937.59
2019-04-28T18:52:40.555Z,101941.20
2019-04-28T18:55:45.000Z,101941.25
2019-04-28T18:58:49.429Z,101952.31
2019-04-28T19:02:00.422Z,101958.55
2019-04-28T19:05:05.273Z,101963.89
2019-04-28T19:08:27.174Z,101970.08
2019-04-28T19:11:50.853Z,101968.73
2019-04-28T19:15:08.719Z,101963.46
2019-04-28T19:18:21.842Z,101967.41
2019-04-28T19:21:26.326Z,101963.47
2019-04-28T19:24:30.864Z,101974.56
2019-04-28T19:27:35.388Z,101973.22
2019-04-28T19:30:40.194Z,101977.20
2019-04-28T19:33:44.723Z,101980.33
2019-04-28T19:36:52.513Z,101986.52
2019-04-28T19:39:56.861Z,101982.98
2019-04-28T19:43:01.318Z,101987.42
2019-04-28T19:46:11.156Z,101991.86
2019-04-28T19:49:15.640Z,102000.27
2019-04-28T19:52:20.113Z,102001.14
2019-04-28T19:55:32.194Z,102003.36
2019-04-28T19:58:41.057Z,102005.11
2019-04-28T20:01:45.591Z,102006.02
2019-04-28T20:04:49.967Z,102006.01
2019-04-28T20:07:54.508Z,102012.64
2019-04-28T20:10:59.194Z,102017.95
2019-04-28T20:14:03.695Z,102017.51
2019-04-28T20:17:08.143Z,102021.49
2019-04-28T20:20:12.949Z,102025.45
2019-04-28T20:23:17.353Z,102025.91
2019-04-28T20:26:21.767Z,102026.36
2019-04-28T20:29:26.091Z,102029.02
2019-04-28T20:32:33.016Z,102032.54
2019-04-28T20:35:41.340Z,102026.37
2019-04-28T20:38:46.755Z,102025.02
2019-04-28T20:41:52.885Z,102038.73
2019-04-28T20:44:57.292Z,102028.11
2019-04-28T20:48:01.595Z,102036.07
2019-04-28T20:51:05.976Z,102033.00
2019-04-28T20:54:10.291Z,102036.53
2019-04-28T20:57:14.577Z,102035.66
2019-04-28T21:00:19.004Z,102039.19
2019-04-28T21:03:23.378Z,102039.64
2019-04-28T21:06:27.694Z,102039.63
2019-04-28T21:09:32.002Z,102041.83
2019-04-28T21:12:36.338Z,102040.95
2019-04-28T21:15:40.636Z,102036.08
2019-04-28T21:18:44.947Z,102040.08
2019-04-28T21:21:49.244Z,102033.86
2019-04-28T21:24:53.580Z,102037.41
2019-04-28T21:27:57.890Z,102035.64
2019-04-28T21:31:02.208Z,102046.24
2019-04-28T21:34:06.510Z,102045.38
2019-04-28T21:37:10.830Z,102048.45
2019-04-28T21:40:16.227Z,102053.77
2019-04-28T21:43:35.150Z,102057.33
2019-04-28T21:46:44.138Z,102054.23
2019-04-28T21:49:48.460Z,102053.77
2019-04-28T21:52:52.760Z,102060.41
2019-04-28T21:55:57.074Z,102058.66
2019-04-28T21:59:01.388Z,102059.08
2019-04-28T22:02:05.711Z,102056.45
2019-04-28T22:05:11.062Z,102059.55
2019-04-28T22:08:15.382Z,102056.44
2019-04-28T22:11:19.713Z,102067.48
2019-04-28T22:14:24.029Z,102055.09
2019-04-28T22:17:28.328Z,102062.62
2019-04-28T22:20:32.640Z,102056.87
2019-04-28T22:23:58.911Z,102064.83
2019-04-28T22:27:03.214Z,102055.09
2019-04-28T22:30:07.886Z,102067.91
2019-04-28T22:33:12.168Z,102071.02
2019-04-28T22:36:16.482Z,102068.36
2019-04-28T22:39:20.781Z,102071.02
2019-04-28T22:42:25.083Z,102072.80
2019-04-28T22:45:29.389Z,102071.91
2019-04-28T22:48:33.681Z,102072.36
2019-04-28T22:51:37.991Z,102072.80
2019-04-28T22:55:07.414Z,102074.55
2019-04-28T22:58:24.366Z,102078.55
2019-04-28T23:01:31.202Z,102082.52
2019-04-28T23:04:39.542Z,102089.62
2019-04-28T23:07:43.826Z,102082.52
2019-04-28T23:10:48.154Z,102085.62
2019-04-28T23:13:52.517Z,102090.50
2019-04-28T23:16:57.323Z,102092.73
2019-04-28T23:20:01.685Z,102091.37
2019-04-28T23:23:06.845Z,102094.48
2019-04-28T23:26:11.251Z,102094.48
2019-04-28T23:29:15.686Z,102097.58
2019-04-28T23:32:20.003Z,102095.80
2019-04-28T23:35:24.725Z,102099.80
2019-04-28T23:38:29.005Z,102104.20
2019-04-28T23:41:48.401Z,102105.10
2019-04-28T23:44:52.742Z,102106.00
2019-04-28T23:47:57.196Z,102109.98
2019-04-28T23:51:20.527Z,102109.09
2019-04-28T23:54:24.935Z,102108.64
2019-04-28T23:57:29.230Z,102109.55
